createdAt,value
2023-02-22T00:00:09.929Z,8.99
2023-02-22T00:03:10.350Z,8.93
2023-02-22T00:06:07.925Z,8.90
2023-02-22T00:09:35.373Z,8.91
2023-02-22T00:15:33.773Z,8.89
2023-02-22T00:18:12.090Z,8.92
2023-02-22T00:20:46.936Z,8.90
2023-02-22T00:23:22.137Z,8.90
2023-02-22T00:25:58.608Z,8.90
2023-02-22T00:29:00.122Z,8.91
2023-02-22T00:32:00.424Z,8.94
2023-02-22T00:34:36.686Z,8.97
2023-02-22T00:38:02.615Z,8.98
2023-02-22T00:40:40.221Z,8.96
2023-02-22T00:43:41.741Z,8.95
2023-02-22T00:46:47.619Z,8.93
2023-02-22T00:49:23.348Z,8.90
2023-02-22T00:51:58.792Z,8.83
2023-02-22T00:54:33.032Z,8.83
2023-02-22T00:57:06.848Z,8.79
2023-02-22T00:59:43.301Z,8.74
2023-02-22T01:02:23.374Z,8.70
2023-02-22T01:05:01.105Z,8.70
2023-02-22T01:07:40.877Z,8.62
2023-02-22T01:10:19.494Z,8.59
2023-02-22T01:13:23.139Z,8.57
2023-02-22T01:15:58.630Z,8.55
2023-02-22T01:21:33.888Z,8.50
2023-02-22T01:34:48.369Z,8.30
2023-02-22T01:41:58.636Z,8.23
2023-02-22T01:44:35.184Z,8.19
2023-02-22T01:47:09.781Z,8.14
2023-02-22T01:50:35.273Z,8.13
2023-02-22T01:53:12.873Z,8.11
2023-02-22T01:55:51.681Z,8.08
2023-02-22T01:58:27.618Z,8.08
2023-02-22T02:01:08.034Z,8.05
2023-02-22T02:04:10.651Z,8.02
2023-02-22T02:06:49.549Z,7.98
2023-02-22T02:09:50.728Z,7.98
2023-02-22T02:12:51.276Z,7.94
2023-02-22T02:15:53.856Z,7.89
2023-02-22T02:18:29.591Z,7.84
2023-02-22T02:21:48.361Z,7.78
2023-02-22T02:24:59.778Z,7.72
2023-02-22T02:27:48.448Z,7.69
2023-02-22T02:31:11.339Z,7.67
2023-02-22T02:34:55.032Z,7.66
2023-02-22T02:38:00.495Z,7.65
2023-02-22T02:40:38.723Z,7.60
2023-02-22T02:43:27.420Z,7.56
2023-02-22T02:46:04.998Z,7.54
2023-02-22T02:49:06.607Z,7.50
2023-02-22T02:51:43.511Z,7.47
2023-02-22T02:54:20.268Z,7.47
2023-02-22T02:57:05.610Z,7.47
2023-02-22T02:59:39.683Z,7.47
2023-02-22T03:02:25.081Z,7.48
2023-02-22T03:05:41.420Z,7.46
2023-02-22T03:09:04.188Z,7.44
2023-02-22T03:11:48.612Z,7.43
2023-02-22T03:21:11.704Z,7.49
2023-02-22T03:23:55.787Z,7.50
2023-02-22T03:27:01.647Z,7.51
2023-02-22T03:30:25.679Z,7.54
2023-02-22T03:33:30.869Z,7.52
2023-02-22T03:36:34.169Z,7.52
2023-02-22T03:42:37.744Z,7.35
2023-02-22T03:45:15.624Z,7.37
2023-02-22T03:48:19.618Z,7.37
2023-02-22T03:51:02.682Z,7.39
2023-02-22T03:54:27.419Z,7.45
2023-02-22T04:00:29.426Z,7.55
2023-02-22T04:03:31.723Z,7.57
2023-02-22T04:06:05.858Z,7.55
2023-02-22T04:09:30.416Z,7.56
2023-02-22T04:12:06.371Z,7.56
2023-02-22T04:14:43.899Z,7.58
2023-02-22T04:17:18.646Z,7.60
2023-02-22T04:19:52.277Z,7.65
2023-02-22T04:29:13.711Z,7.70
2023-02-22T04:31:49.368Z,7.74
2023-02-22T04:34:26.509Z,7.77
2023-02-22T04:37:30.660Z,7.79
2023-02-22T04:40:31.477Z,7.80
2023-02-22T04:43:09.029Z,7.81
2023-02-22T04:45:44.029Z,7.80
2023-02-22T04:48:16.243Z,7.78
2023-02-22T04:51:14.328Z,7.78
2023-02-22T04:53:50.498Z,7.76
2023-02-22T04:56:48.993Z,7.68
2023-02-22T04:59:53.876Z,7.70
2023-02-22T05:02:52.523Z,7.71
2023-02-22T05:05:26.885Z,7.68
2023-02-22T05:08:04.524Z,7.70
2023-02-22T05:11:02.815Z,7.68
2023-02-22T05:14:04.320Z,7.71
2023-02-22T05:16:40.618Z,7.70
2023-02-22T05:19:16.333Z,7.69
2023-02-22T05:21:53.349Z,7.71
2023-02-22T05:24:29.328Z,7.74
2023-02-22T05:27:09.869Z,7.74
2023-02-22T05:29:48.038Z,7.71
2023-02-22T05:32:23.892Z,7.73
2023-02-22T05:35:02.038Z,7.71
2023-02-22T05:37:37.055Z,7.70
2023-02-22T05:40:17.374Z,7.72
2023-02-22T05:42:52.957Z,7.69
2023-02-22T05:45:27.705Z,7.65
2023-02-22T05:48:07.404Z,7.65
2023-02-22T05:51:05.203Z,7.69
2023-02-22T05:53:38.639Z,7.68
2023-02-22T05:56:11.016Z,7.68
2023-02-22T06:01:46.856Z,7.80
2023-02-22T06:04:20.266Z,7.83
2023-02-22T06:06:53.144Z,7.84
2023-02-22T06:09:53.595Z,7.89
2023-02-22T06:12:32.798Z,7.92
2023-02-22T06:15:10.774Z,7.95
2023-02-22T06:17:45.583Z,7.95
2023-02-22T06:20:44.568Z,8.00
2023-02-22T06:23:18.893Z,8.07
2023-02-22T06:25:55.700Z,8.14
2023-02-22T06:28:33.106Z,8.18
2023-02-22T06:31:10.246Z,8.19
2023-02-22T06:33:43.075Z,8.25
2023-02-22T06:36:39.308Z,8.29
2023-02-22T06:43:04.468Z,8.41
2023-02-22T06:45:39.577Z,8.49
2023-02-22T06:48:16.587Z,8.57
2023-02-22T06:50:56.234Z,8.63
2023-02-22T06:53:33.552Z,8.70
2023-02-22T06:59:52.509Z,8.90
2023-02-22T07:02:26.392Z,9.02
2023-02-22T07:05:04.304Z,9.12
2023-02-22T07:07:41.074Z,9.18
2023-02-22T07:10:23.971Z,9.25
2023-02-22T07:12:58.306Z,9.31
2023-02-22T07:15:34.479Z,9.42
2023-02-22T07:18:33.682Z,9.53
2023-02-22T07:21:09.243Z,9.60
2023-02-22T07:23:48.903Z,9.63
2023-02-22T07:26:48.561Z,9.72
2023-02-22T07:29:22.557Z,9.79
2023-02-22T07:31:57.867Z,9.83
2023-02-22T07:34:34.797Z,9.89
2023-02-22T07:37:56.331Z,9.92
2023-02-22T07:40:32.800Z,9.99
2023-02-22T07:43:43.254Z,10.04
2023-02-22T07:46:17.978Z,10.13
2023-02-22T07:49:41.351Z,10.19
2023-02-22T07:52:40.554Z,10.19
2023-02-22T07:55:16.411Z,10.28
2023-02-22T07:57:57.075Z,10.36
2023-02-22T08:00:39.381Z,10.43
2023-02-22T08:06:24.862Z,10.49
2023-02-22T08:08:59.122Z,10.54
2023-02-22T08:12:01.199Z,10.60
2023-02-22T08:15:01.947Z,10.69
2023-02-22T08:20:40.955Z,10.81
2023-02-22T08:23:19.000Z,10.86
2023-02-22T08:25:55.059Z,10.90
2023-02-22T08:29:18.002Z,10.98
2023-02-22T08:32:16.739Z,11.12
2023-02-22T08:37:47.962Z,11.36
2023-02-22T08:40:23.772Z,11.42
2023-02-22T08:42:58.559Z,11.48
2023-02-22T08:45:36.857Z,11.59
2023-02-22T08:48:36.639Z,11.74
2023-02-22T08:57:49.249Z,11.91
2023-02-22T09:00:49.132Z,11.99
2023-02-22T09:03:22.792Z,12.09
2023-02-22T09:06:01.595Z,12.10
2023-02-22T09:08:57.744Z,12.12
2023-02-22T09:11:30.326Z,12.11
2023-02-22T09:14:06.508Z,12.14
2023-02-22T09:17:05.792Z,12.23
2023-02-22T09:19:44.879Z,12.37
2023-02-22T09:22:19.455Z,12.47
2023-02-22T09:25:17.441Z,12.53
2023-02-22T09:27:54.734Z,12.62
2023-02-22T09:30:32.230Z,12.58
2023-02-22T09:33:06.875Z,12.63
2023-02-22T09:36:33.231Z,12.77
2023-02-22T09:39:11.469Z,12.83
2023-02-22T09:41:55.340Z,12.79
2023-02-22T09:47:46.929Z,12.83
2023-02-22T09:50:25.649Z,12.95
2023-02-22T09:53:50.649Z,13.03
2023-02-22T09:56:29.914Z,13.09
2023-02-22T09:59:08.751Z,13.10
2023-02-22T10:02:09.982Z,13.12
2023-02-22T10:11:25.689Z,13.28
2023-02-22T10:14:35.345Z,13.18
2023-02-22T10:17:41.496Z,13.23
2023-02-22T10:20:28.711Z,13.31
2023-02-22T10:23:36.545Z,13.34
2023-02-22T10:26:44.938Z,13.26
2023-02-22T10:29:25.608Z,13.08
2023-02-22T10:32:22.575Z,12.92
2023-02-22T10:35:00.342Z,12.87
2023-02-22T10:37:35.518Z,12.98
2023-02-22T10:40:36.200Z,13.06
2023-02-22T10:43:11.184Z,13.05
2023-02-22T10:45:45.796Z,13.05
2023-02-22T10:48:46.427Z,13.10
2023-02-22T10:51:42.581Z,13.15
2023-02-22T10:54:28.102Z,13.26
2023-02-22T10:57:05.892Z,13.38
2023-02-22T11:00:27.251Z,13.42
2023-02-22T11:03:26.009Z,13.41
2023-02-22T11:06:01.566Z,13.41
2023-02-22T11:08:36.662Z,13.43
2023-02-22T11:11:26.385Z,13.38
2023-02-22T11:14:28.402Z,13.34
2023-02-22T11:17:04.514Z,13.33
2023-02-22T11:22:48.180Z,13.05
2023-02-22T11:25:26.856Z,12.97
2023-02-22T11:28:16.651Z,12.83
2023-02-22T11:30:59.565Z,12.82
2023-02-22T11:33:34.200Z,12.84
2023-02-22T11:36:34.053Z,12.73
2023-02-22T11:39:22.616Z,12.62
2023-02-22T11:42:52.079Z,12.80
2023-02-22T11:45:58.559Z,12.99
2023-02-22T11:48:39.505Z,13.09
2023-02-22T11:51:31.302Z,13.17
2023-02-22T11:54:30.606Z,13.28
2023-02-22T11:57:30.653Z,13.37
2023-02-22T12:04:05.932Z,13.42
2023-02-22T12:09:52.251Z,13.33
2023-02-22T12:12:29.680Z,13.22
2023-02-22T12:15:14.037Z,13.13
2023-02-22T12:18:00.011Z,13.11
2023-02-22T12:20:40.971Z,13.13
2023-02-22T12:23:23.386Z,12.83
2023-02-22T12:29:10.512Z,12.46
2023-02-22T12:31:48.465Z,12.42
2023-02-22T12:34:36.018Z,12.39
2023-02-22T12:37:16.183Z,12.35
2023-02-22T12:40:25.132Z,12.50
2023-02-22T12:43:05.836Z,12.42
2023-02-22T12:45:44.180Z,12.41
2023-02-22T12:48:27.878Z,12.50
2023-02-22T12:51:05.805Z,12.69
2023-02-22T12:53:40.226Z,12.74
2023-02-22T12:56:23.831Z,12.74
2023-02-22T12:59:29.037Z,12.89
2023-02-22T13:02:37.292Z,12.97
2023-02-22T13:05:21.568Z,12.99
2023-02-22T13:08:24.609Z,13.03
2023-02-22T13:11:17.376Z,13.01
2023-02-22T13:16:59.935Z,13.07
2023-02-22T13:19:41.798Z,13.13
2023-02-22T13:25:23.350Z,13.09
2023-02-22T13:28:26.880Z,12.97
2023-02-22T13:31:15.978Z,12.94
2023-02-22T13:34:05.844Z,12.94
2023-02-22T13:36:51.707Z,12.80
2023-02-22T13:39:57.502Z,12.74
2023-02-22T13:42:52.522Z,12.61
2023-02-22T13:45:45.476Z,12.60
2023-02-22T13:48:29.976Z,12.67
2023-02-22T13:51:11.498Z,12.66
2023-02-22T13:53:55.483Z,12.53
2023-02-22T13:56:28.190Z,12.45
2023-02-22T13:59:02.715Z,12.48
2023-02-22T14:01:49.405Z,12.52
2023-02-22T14:04:49.268Z,12.64
2023-02-22T14:07:59.586Z,12.78
2023-02-22T14:10:55.127Z,12.90
2023-02-22T14:13:28.778Z,12.98
2023-02-22T14:16:22.873Z,12.93
2023-02-22T14:19:06.947Z,12.77
2023-02-22T14:21:44.009Z,12.72
2023-02-22T14:24:19.204Z,12.70
2023-02-22T14:27:02.164Z,12.63
2023-02-22T14:29:35.447Z,12.62
2023-02-22T14:32:10.763Z,12.62
2023-02-22T14:34:52.101Z,12.60
2023-02-22T14:37:26.819Z,12.58
2023-02-22T14:40:13.000Z,12.65
2023-02-22T14:42:52.264Z,12.72
2023-02-22T14:45:29.288Z,12.73
2023-02-22T14:48:13.915Z,12.71
2023-02-22T14:50:52.504Z,12.71
2023-02-22T14:53:34.757Z,12.68
2023-02-22T14:56:11.841Z,12.68
2023-02-22T14:58:48.128Z,12.68
2023-02-22T15:01:33.890Z,12.57
2023-02-22T15:07:27.637Z,12.41
2023-02-22T15:10:26.029Z,12.22
2023-02-22T15:13:10.752Z,12.18
2023-02-22T15:15:50.311Z,12.11
2023-02-22T15:18:33.907Z,12.09
2023-02-22T15:21:13.483Z,12.07
2023-02-22T15:23:54.677Z,12.08
2023-02-22T15:26:28.860Z,11.97
2023-02-22T15:29:02.905Z,11.86
2023-02-22T15:31:38.992Z,11.76
2023-02-22T15:34:25.906Z,11.67
2023-02-22T15:37:07.775Z,11.62
2023-02-22T15:39:44.051Z,11.65
2023-02-22T15:42:25.066Z,11.68
2023-02-22T15:45:00.553Z,11.71
2023-02-22T15:48:00.895Z,11.68
2023-02-22T15:50:35.370Z,11.64
2023-02-22T15:53:09.885Z,11.61
2023-02-22T15:55:48.851Z,11.59
2023-02-22T15:58:30.172Z,11.55
2023-02-22T16:01:28.880Z,11.57
2023-02-22T16:04:03.141Z,11.53
2023-02-22T16:06:37.064Z,11.46
2023-02-22T16:15:27.430Z,11.19
2023-02-22T16:18:02.418Z,11.17
2023-02-22T16:21:08.738Z,11.16
2023-02-22T16:24:16.522Z,11.07
2023-02-22T16:27:22.199Z,11.02
2023-02-22T16:30:26.858Z,10.96
2023-02-22T16:33:03.857Z,10.90
2023-02-22T16:38:59.056Z,10.63
2023-02-22T16:41:34.304Z,10.52
2023-02-22T16:44:56.684Z,10.44
2023-02-22T16:48:03.043Z,10.30
2023-02-22T16:50:37.596Z,10.18
2023-02-22T16:53:41.445Z,10.11
2023-02-22T16:56:19.491Z,10.00
2023-02-22T16:58:54.514Z,9.88
2023-02-22T17:01:29.804Z,9.79
2023-02-22T17:04:06.076Z,9.69
2023-02-22T17:06:40.646Z,9.58
2023-02-22T17:09:20.248Z,9.52
2023-02-22T17:12:22.360Z,9.40
2023-02-22T17:14:59.991Z,9.31
2023-02-22T17:17:35.479Z,9.21
2023-02-22T17:20:12.548Z,9.14
2023-02-22T17:22:45.570Z,9.07
2023-02-22T17:25:26.331Z,9.02
2023-02-22T17:28:02.667Z,8.98
2023-02-22T17:30:36.382Z,8.89
2023-02-22T17:36:38.009Z,8.75
2023-02-22T17:39:16.305Z,8.67
2023-02-22T17:45:20.443Z,8.45
2023-02-22T17:48:24.147Z,8.37
2023-02-22T17:51:00.028Z,8.30
2023-02-22T17:53:37.409Z,8.24
2023-02-22T17:59:22.604Z,8.09
2023-02-22T18:02:03.372Z,8.00
2023-02-22T18:05:03.378Z,7.95
2023-02-22T18:07:39.043Z,7.89
2023-02-22T18:10:35.820Z,7.84
2023-02-22T18:13:32.455Z,7.76
2023-02-22T18:16:06.429Z,7.66
2023-02-22T18:18:42.329Z,7.62
2023-02-22T18:21:16.384Z,7.59
2023-02-22T18:23:50.513Z,7.56
2023-02-22T18:29:48.703Z,7.49
2023-02-22T18:32:22.643Z,7.42
2023-02-22T18:34:57.437Z,7.34
2023-02-22T18:37:56.810Z,7.29
2023-02-22T18:40:33.394Z,7.27
2023-02-22T18:43:05.745Z,7.22
2023-02-22T18:45:38.165Z,7.20
2023-02-22T18:48:11.876Z,7.19
2023-02-22T18:50:47.971Z,7.16
2023-02-22T18:53:23.994Z,7.12
2023-02-22T18:55:58.415Z,7.05
2023-02-22T18:58:34.493Z,7.02
2023-02-22T19:01:09.562Z,6.97
2023-02-22T19:03:43.605Z,6.85
2023-02-22T19:09:44.433Z,6.76
2023-02-22T19:12:24.948Z,6.73
2023-02-22T19:15:02.036Z,6.69
2023-02-22T19:18:27.805Z,6.64
2023-02-22T19:21:05.400Z,6.57
2023-02-22T19:23:46.876Z,6.48
2023-02-22T19:26:32.691Z,6.44
2023-02-22T19:29:09.144Z,6.41
2023-02-22T19:31:51.571Z,6.35
2023-02-22T19:34:32.627Z,6.34
2023-02-22T19:37:06.340Z,6.38
2023-02-22T19:39:41.221Z,6.41
2023-02-22T19:42:14.155Z,6.40
2023-02-22T19:44:50.189Z,6.45
2023-02-22T19:48:10.418Z,6.46
2023-02-22T19:50:49.359Z,6.43
2023-02-22T19:53:24.089Z,6.41
2023-02-22T19:59:09.618Z,6.35
2023-02-22T20:02:29.921Z,6.34
2023-02-22T20:05:26.409Z,6.25
2023-02-22T20:08:49.422Z,6.15
2023-02-22T20:11:25.071Z,6.02
2023-02-22T20:14:27.029Z,5.93
2023-02-22T20:17:00.153Z,5.85
2023-02-22T20:22:57.137Z,5.70
2023-02-22T20:25:30.538Z,5.65
2023-02-22T20:28:12.095Z,5.60
2023-02-22T20:30:47.623Z,5.52
2023-02-22T20:33:23.539Z,5.48
2023-02-22T20:36:27.003Z,5.46
2023-02-22T20:39:13.610Z,5.42
2023-02-22T20:41:49.455Z,5.42
2023-02-22T20:44:26.683Z,5.41
2023-02-22T20:47:02.500Z,5.45
2023-02-22T20:49:44.209Z,5.48
2023-02-22T20:52:24.968Z,5.54
2023-02-22T20:55:04.319Z,5.58
2023-02-22T20:58:04.887Z,5.64
2023-02-22T21:00:46.329Z,5.65
2023-02-22T21:03:20.876Z,5.68
2023-02-22T21:08:57.130Z,5.73
2023-02-22T21:11:57.628Z,5.71
2023-02-22T21:14:40.262Z,5.75
2023-02-22T21:17:23.005Z,5.76
2023-02-22T21:20:27.997Z,5.77
2023-02-22T21:23:06.039Z,5.80
2023-02-22T21:25:38.256Z,5.77
2023-02-22T21:28:11.874Z,5.80
2023-02-22T21:30:50.247Z,5.84
2023-02-22T21:34:14.699Z,5.87
2023-02-22T21:36:48.830Z,5.83
2023-02-22T21:39:28.583Z,5.84
2023-02-22T21:42:03.532Z,5.81
2023-02-22T21:44:47.181Z,5.78
2023-02-22T21:48:10.011Z,5.79
2023-02-22T21:50:44.721Z,5.76
2023-02-22T21:53:19.131Z,5.74
2023-02-22T22:02:08.854Z,5.55
2023-02-22T22:08:07.577Z,5.46
2023-02-22T22:10:48.370Z,5.42
2023-02-22T22:13:23.083Z,5.39
2023-02-22T22:15:56.068Z,5.37
2023-02-22T22:18:29.219Z,5.38
2023-02-22T22:21:02.323Z,5.40
2023-02-22T22:23:39.086Z,5.39
2023-02-22T22:26:13.863Z,5.38
2023-02-22T22:28:52.168Z,5.37
2023-02-22T22:31:30.690Z,5.34
2023-02-22T22:34:04.577Z,5.33
2023-02-22T22:37:30.186Z,5.26
2023-02-22T22:40:05.968Z,5.20
2023-02-22T22:42:44.862Z,5.18
2023-02-22T22:45:45.705Z,5.13
2023-02-22T22:48:22.937Z,5.09
2023-02-22T22:51:08.153Z,5.09
2023-02-22T22:54:15.896Z,5.05
2023-02-22T22:57:12.853Z,5.02
2023-02-22T23:02:55.375Z,4.99
2023-02-22T23:05:29.667Z,4.98
2023-02-22T23:08:29.414Z,4.97
2023-02-22T23:11:08.265Z,4.94
2023-02-22T23:13:44.083Z,4.91
2023-02-22T23:17:17.363Z,4.87
2023-02-22T23:19:57.011Z,4.80
2023-02-22T23:22:58.023Z,4.78
2023-02-22T23:25:35.905Z,4.73
2023-02-22T23:28:15.954Z,4.72
2023-02-22T23:30:52.407Z,4.72
2023-02-22T23:33:52.104Z,4.71
2023-02-22T23:36:29.458Z,4.68
2023-02-22T23:39:29.710Z,4.65
2023-02-22T23:42:04.062Z,4.62
2023-02-22T23:45:03.075Z,4.57
2023-02-22T23:47:37.019Z,4.53
2023-02-22T23:50:16.311Z,4.50
2023-02-22T23:56:18.046Z,4.45
2023-02-22T23:58:53.606Z,4.46
